Terminal Aerodrome Forecast
Issued by NWS Austin/San Antonio, TX

Home | Current Version | Previous Version | Text Only | Print | Product List | Glossary On
Versions: 1 2 3 4 5 6 7 8 9 10 11 12 13 14 15 16 17 18 19 20 21 22 23 24 25 26 27
000
FTUS44 KEWX 290030 AAA
TAFAUS
TAF AMD
KAUS 290030Z 2901/3006 15022G32KT P6SM FEW050 FEW080
     FM290300 16016G26KT P6SM BKN018
     FM290800 28025G35KT 3SM TSRA BR OVC012CB
     FM291000 VRB05KT P6SM VCSH BKN040
     FM291200 22007KT P6SM SCT250=

USA.gov is the U.S. government's official web portal to all federal, state and local government web resources and services.